Terminal Aerodrome Forecast
Issued by NWS Los Angeles, CA

Home | Current Version | Previous Version | Text Only | Print | Product List | Glossary On
Versions: 1 2 3 4 5 6 7 8 9 10 11 12 13 14 15 16 17 18 19 20 21 22 23 24 25
930
FTUS46 KLOX 211732
TAFSMX
TAF
KSMX 211732Z 2118/2218 29010KT P6SM BKN015 OVC025
     FM212100 30015G25KT P6SM SCT025
     FM220200 30012KT P6SM FEW150
     FM220400 31007KT P6SM OVC008
     FM220800 30005KT 4SM BR OVC004
     FM221700 30007KT P6SM BKN012 OVC025=

USA.gov is the U.S. government's official web portal to all federal, state and local government web resources and services.